createdAt,value
2023-12-27T07:28:26.830Z,4.97
2023-12-27T07:30:55.786Z,4.96
2023-12-27T07:33:24.960Z,4.95
2023-12-27T07:35:54.120Z,4.92
2023-12-27T07:38:24.197Z,4.95
2023-12-27T07:40:53.102Z,4.97
2023-12-27T07:43:23.553Z,4.98
2023-12-27T07:45:52.568Z,5.00
2023-12-27T07:48:21.790Z,5.00
2023-12-27T07:50:51.353Z,5.01
2023-12-27T07:53:20.397Z,5.00
2023-12-27T07:55:49.612Z,4.97
2023-12-27T07:58:18.748Z,4.94
2023-12-27T08:00:48.251Z,4.94
2023-12-27T08:03:18.019Z,4.95
2023-12-27T08:05:47.313Z,4.96
2023-12-27T08:08:16.396Z,4.99
2023-12-27T08:10:45.486Z,5.02
2023-12-27T08:13:14.420Z,5.04
2023-12-27T08:15:43.468Z,5.06
2023-12-27T08:18:12.820Z,5.08
2023-12-27T08:20:41.820Z,5.08
2023-12-27T08:23:11.879Z,5.07
2023-12-27T08:25:40.813Z,5.05
2023-12-27T08:28:13.574Z,5.06
2023-12-27T08:30:42.864Z,5.09
2023-12-27T08:33:12.300Z,5.14
2023-12-27T08:35:41.319Z,5.18
2023-12-27T08:38:10.435Z,5.20
2023-12-27T08:40:39.366Z,5.22
2023-12-27T08:43:08.349Z,5.23
2023-12-27T08:45:37.651Z,5.21
2023-12-27T08:48:08.106Z,5.19
2023-12-27T08:50:37.684Z,5.21
2023-12-27T08:53:06.723Z,5.26
2023-12-27T08:55:35.730Z,5.30
2023-12-27T08:58:06.683Z,5.32
2023-12-27T09:00:35.973Z,5.39
2023-12-27T09:03:05.564Z,5.39
2023-12-27T09:05:35.165Z,5.40
2023-12-27T09:08:04.576Z,5.45
2023-12-27T09:10:34.972Z,5.49
2023-12-27T09:13:05.125Z,5.53
2023-12-27T09:15:34.467Z,5.54
2023-12-27T09:18:04.368Z,5.54
2023-12-27T09:20:33.876Z,5.51
2023-12-27T09:23:03.149Z,5.48
2023-12-27T09:25:32.208Z,5.47
2023-12-27T09:28:02.215Z,5.51
2023-12-27T09:30:32.260Z,5.56
2023-12-27T09:33:01.821Z,5.62
2023-12-27T09:35:30.930Z,5.65
2023-12-27T09:38:00.216Z,5.70
2023-12-27T09:40:29.728Z,5.73
2023-12-27T09:42:58.759Z,5.80
2023-12-27T09:45:31.262Z,5.87
2023-12-27T09:48:04.392Z,5.94
2023-12-27T09:50:39.036Z,5.97
2023-12-27T09:55:53.354Z,6.02
2023-12-27T09:58:23.057Z,6.00
2023-12-27T10:00:52.183Z,6.03
2023-12-27T10:03:22.541Z,6.04
2023-12-27T10:05:52.882Z,6.07
2023-12-27T10:08:21.837Z,6.10
2023-12-27T10:10:51.015Z,6.10
2023-12-27T10:13:20.097Z,6.09
2023-12-27T10:15:49.435Z,6.08
2023-12-27T10:18:18.939Z,6.06
2023-12-27T10:20:49.418Z,6.08
2023-12-27T10:23:18.867Z,6.13
2023-12-27T10:25:48.153Z,6.15
2023-12-27T10:28:17.520Z,6.14
2023-12-27T19:09:49.700Z,3.63
2023-12-27T19:12:18.850Z,3.64
2023-12-27T19:14:48.101Z,3.67
2023-12-27T19:17:17.370Z,3.68
2023-12-27T19:19:46.666Z,3.71
2023-12-27T19:22:16.011Z,3.70
2023-12-27T19:24:45.256Z,3.68
2023-12-27T19:27:14.288Z,3.62
2023-12-27T19:29:43.382Z,3.56
2023-12-27T19:32:12.625Z,3.50
2023-12-27T19:34:42.339Z,3.44
2023-12-27T19:37:11.291Z,3.39
2023-12-27T19:39:40.916Z,3.33
2023-12-27T19:42:11.819Z,3.25
2023-12-27T19:44:42.024Z,3.17
2023-12-27T19:47:11.379Z,3.15
2023-12-27T19:49:47.342Z,3.15
2023-12-27T19:52:19.759Z,3.17
2023-12-27T19:54:50.504Z,3.22
2023-12-27T19:57:19.733Z,3.27
2023-12-27T19:59:48.928Z,3.31
2023-12-27T20:02:21.054Z,3.32
2023-12-27T20:04:50.496Z,3.31
2023-12-27T20:07:19.704Z,3.29
2023-12-27T20:09:49.604Z,3.23
2023-12-27T20:12:24.641Z,3.22
2023-12-27T20:14:57.748Z,3.20
2023-12-27T20:17:27.951Z,3.14
2023-12-27T20:19:59.566Z,3.10
2023-12-27T20:22:28.609Z,3.04
2023-12-27T20:24:57.670Z,3.02
2023-12-27T20:27:26.738Z,2.99
2023-12-27T20:29:56.861Z,2.96
2023-12-27T20:32:26.788Z,2.89
2023-12-27T20:34:57.929Z,2.86
2023-12-27T20:44:39.140Z,2.61
2023-12-27T20:47:09.200Z,2.52
2023-12-27T20:49:38.405Z,2.49
2023-12-27T20:52:07.809Z,2.43
2023-12-27T20:54:38.289Z,2.40
2023-12-27T20:57:09.140Z,2.39
2023-12-27T20:59:40.057Z,2.46
2023-12-27T21:02:09.879Z,2.46
2023-12-27T21:04:39.198Z,2.50
2023-12-27T21:07:08.295Z,2.54
2023-12-27T21:09:37.280Z,2.55
2023-12-27T21:12:09.429Z,2.52
2023-12-27T21:14:38.512Z,2.48
2023-12-27T21:17:07.650Z,2.43
2023-12-27T21:19:38.033Z,2.37
2023-12-27T21:22:07.187Z,2.27
2023-12-27T21:24:36.218Z,2.19
2023-12-27T21:27:05.768Z,2.10
2023-12-27T21:29:36.296Z,2.06
2023-12-27T21:32:05.736Z,2.01
2023-12-27T21:34:34.782Z,1.99
2023-12-27T21:37:04.082Z,1.96
2023-12-27T21:39:33.122Z,1.99
2023-12-27T21:42:01.979Z,2.00
2023-12-27T21:44:30.954Z,1.98
2023-12-27T21:47:00.346Z,1.94
2023-12-27T21:49:32.265Z,1.90
2023-12-27T21:52:01.189Z,1.87
2023-12-27T21:54:30.052Z,1.80
2023-12-27T21:56:59.007Z,1.77
2023-12-27T21:59:28.056Z,1.76
2023-12-27T22:01:57.331Z,1.74
2023-12-27T22:04:26.254Z,1.76
2023-12-27T22:06:55.389Z,1.77
2023-12-27T22:09:24.413Z,1.79
2023-12-27T22:11:53.569Z,1.80
2023-12-27T22:14:22.638Z,1.84
2023-12-27T22:16:51.839Z,1.92
2023-12-27T22:19:21.003Z,1.96
2023-12-27T22:21:51.518Z,2.04
2023-12-27T22:24:20.823Z,2.12
2023-12-27T22:26:49.887Z,2.23
2023-12-27T22:29:18.935Z,2.33
2023-12-27T22:31:48.595Z,2.40
2023-12-27T22:34:17.977Z,2.48
2023-12-27T22:36:47.016Z,2.52
2023-12-27T22:39:16.778Z,2.54
2023-12-27T22:41:46.070Z,2.56
2023-12-27T22:44:15.165Z,2.55
2023-12-27T22:46:44.162Z,2.54
2023-12-27T22:49:13.232Z,2.50
2023-12-27T22:51:42.322Z,2.44
2023-12-27T22:54:11.358Z,2.39
2023-12-27T22:56:40.397Z,2.38
2023-12-27T22:59:09.555Z,2.36
2023-12-27T23:01:43.338Z,2.33
2023-12-27T23:04:12.383Z,2.29
2023-12-27T23:06:41.327Z,2.23
2023-12-27T23:09:10.269Z,2.17
2023-12-27T23:11:44.013Z,2.11
2023-12-27T23:14:12.929Z,2.04
2023-12-27T23:16:41.914Z,1.97
2023-12-27T23:19:10.881Z,1.87
2023-12-27T23:21:40.035Z,1.84
2023-12-27T23:24:09.123Z,1.79
2023-12-27T23:26:38.247Z,1.80
2023-12-27T23:29:07.542Z,1.86
2023-12-27T23:31:36.522Z,1.90
2023-12-27T23:34:05.857Z,1.92
2023-12-27T23:36:34.916Z,1.95
2023-12-27T23:39:04.386Z,1.95
2023-12-27T23:41:33.636Z,1.95
2023-12-27T23:44:02.874Z,1.94
2023-12-27T23:46:32.230Z,1.92
2023-12-27T23:49:01.466Z,1.91
2023-12-27T23:51:32.791Z,1.89
2023-12-27T23:54:02.348Z,1.94
2023-12-27T23:56:31.404Z,1.98
2023-12-27T23:59:00.924Z,2.01
